Terminal Aerodrome Forecast
Issued by NWS Quad Cities IA IL

Home | Current Version | Previous Version | Text Only | Print | Product List | Glossary On
Versions: 1 2 3 4 5 6 7 8 9 10 11 12 13 14 15 16 17 18 19 20 21 22 23 24 25 26 27 28 29 30 31 32 33 34 35 36 37 38 39 40
848
FTUS43 KDVN 011100 AAD
TAFMLI
TAF AMD
KMLI 011100Z 0111/0206 06011KT 2SM -DZ BR OVC004
      TEMPO 0111/0113 1 1/2SM -DZ BR
     FM011500 06012KT 2SM -SHRA BR OVC007
     FM012200 06010KT 3SM -RA BR OVC007
     FM020100 02008KT 6SM BR VCSH OVC009=

USA.gov is the U.S. government's official web portal to all federal, state and local government web resources and services.